Time;durP1;ratioP1;P1;durP2;ratioP2;P2;SDS_P1;SDS_P2;PMS_P1;PMS_P2;Temp;Humidity;BMP_temperature;BMP_pressure;BME280_temperature;BME280_humidity;BME280_pressure;Samples;Min_cycle;Max_cycle;Signal;HPM_P1;HPM_P2
2023/10/06 00:02:58;;;;;;;0.73;0.57;;;15.50;99.90;;;;;;5011052;28;20057;-66
2023/10/06 00:05:24;;;;;;;0.00;0.00;;;15.50;99.90;;;;;;5007508;28;20056;-66
2023/10/06 00:07:50;;;;;;;0.17;0.17;;;15.50;99.90;;;;;;4999813;28;20352;-66
2023/10/06 00:10:22;;;;;;;0.00;0.00;;;15.50;99.90;;;;;;5001978;28;20589;-66
2023/10/06 00:12:53;;;;;;;2.35;0.65;;;15.50;99.90;;;;;;5002686;28;20038;-65
2023/10/06 00:15:35;;;;;;;4.03;0.80;;;15.50;99.90;;;;;;4999650;28;20033;-66
2023/10/06 00:18:07;;;;;;;0.00;0.00;;;15.50;99.90;;;;;;5007263;28;20092;-66
2023/10/06 00:20:39;;;;;;;0.00;0.00;;;15.50;99.90;;;;;;5002312;28;20045;-66
2023/10/06 00:23:13;;;;;;;0.45;0.45;;;15.50;99.90;;;;;;5001895;28;20497;-66
2023/10/06 00:25:42;;;;;;;0.47;0.47;;;15.50;99.90;;;;;;5010120;28;20104;-66
2023/10/06 00:28:16;;;;;;;0.10;0.10;;;15.50;99.90;;;;;;5009820;28;20061;-65
2023/10/06 00:30:42;;;;;;;0.25;0.25;;;15.50;99.90;;;;;;4997910;28;20050;-66
2023/10/06 00:33:10;;;;;;;0.17;0.17;;;15.50;99.90;;;;;;5005384;28;20132;-66
2023/10/06 00:35:36;;;;;;;0.90;0.90;;;15.40;99.90;;;;;;5007811;28;20042;-66
2023/10/06 00:38:12;;;;;;;0.35;0.35;;;15.50;99.90;;;;;;5004726;28;20133;-66
2023/10/06 00:40:44;;;;;;;0.00;0.00;;;15.50;99.90;;;;;;5001849;28;20057;-66
2023/10/06 00:43:15;;;;;;;0.98;0.50;;;15.50;99.90;;;;;;5002412;28;20065;-66
2023/10/06 00:45:44;;;;;;;0.20;0.20;;;15.50;99.90;;;;;;5009443;28;20054;-66
2023/10/06 00:48:13;;;;;;;0.30;0.30;;;15.50;99.90;;;;;;4994984;28;20124;-66
2023/10/06 00:50:39;;;;;;;0.75;0.63;;;15.50;99.90;;;;;;5001544;28;20383;-66
2023/10/06 00:53:05;;;;;;;0.40;0.40;;;15.50;99.90;;;;;;5003233;28;20124;-66
2023/10/06 00:55:31;;;;;;;0.00;0.00;;;15.50;99.90;;;;;;5010491;28;20133;-66
2023/10/06 00:57:57;;;;;;;0.00;0.00;;;15.50;99.90;;;;;;5010439;28;20057;-66
2023/10/06 01:00:24;;;;;;;0.32;0.32;;;15.40;99.90;;;;;;5004608;28;20100;-66
2023/10/06 01:02:50;;;;;;;0.17;0.13;;;15.40;99.90;;;;;;5005572;28;20057;-66
2023/10/06 01:05:16;;;;;;;0.25;0.25;;;15.50;99.90;;;;;;5006912;28;20042;-65
2023/10/06 01:07:46;;;;;;;0.00;0.00;;;15.50;99.90;;;;;;5010690;28;20042;-66
2023/10/06 01:10:34;;;;;;;0.65;0.52;;;15.50;99.90;;;;;;4996381;28;20121;-66
2023/10/06 01:13:11;;;;;;;0.10;0.10;;;15.40;99.90;;;;;;5006066;28;20100;-66
2023/10/06 01:15:49;;;;;;;3.88;2.75;;;15.50;99.90;;;;;;5005916;28;20053;-66
2023/10/06 01:18:35;;;;;;;0.00;0.00;;;15.50;99.90;;;;;;5000648;28;20074;-66
2023/10/06 01:21:16;;;;;;;0.10;0.10;;;15.50;99.90;;;;;;4997726;28;20077;-66
2023/10/06 01:23:42;;;;;;;0.00;0.00;;;15.50;99.90;;;;;;5007659;28;20402;-66
2023/10/06 01:26:08;;;;;;;2.00;0.70;;;15.50;99.90;;;;;;5009340;28;20045;-66
2023/10/06 01:28:34;;;;;;;0.65;0.65;;;15.50;99.90;;;;;;5001236;28;20081;-66
2023/10/06 01:31:02;;;;;;;0.10;0.10;;;15.50;99.90;;;;;;5002943;28;20433;-66
2023/10/06 01:33:27;;;;;;;0.05;0.05;;;15.50;99.90;;;;;;5003896;28;20112;-66
2023/10/06 01:35:55;;;;;;;0.35;0.35;;;15.50;99.90;;;;;;4999200;28;20073;-66
2023/10/06 01:38:23;;;;;;;0.10;0.10;;;15.40;99.90;;;;;;5000542;28;20046;-66
2023/10/06 01:40:53;;;;;;;0.00;0.00;;;15.40;99.90;;;;;;5003362;28;20045;-66
2023/10/06 01:43:29;;;;;;;0.15;0.15;;;15.40;99.90;;;;;;4997437;28;20117;-66
2023/10/06 01:45:55;;;;;;;0.15;0.15;;;15.40;99.90;;;;;;5008873;28;20057;-66
2023/10/06 01:50:48;;;;;;;0.10;0.10;;;15.40;99.90;;;;;;5007034;28;20523;-65
2023/10/06 01:53:18;;;;;;;4.95;0.85;;;15.40;99.90;;;;;;5006169;28;20041;-66
2023/10/06 01:55:56;;;;;;;14.60;1.13;;;15.40;99.90;;;;;;4998808;28;20053;-66
2023/10/06 01:58:21;;;;;;;0.77;0.75;;;15.40;99.90;;;;;;5005578;28;20430;-65
2023/10/06 02:00:50;;;;;;;0.10;0.10;;;15.30;99.90;;;;;;5006994;28;20132;-64
2023/10/06 02:03:21;;;;;;;0.52;0.52;;;15.40;99.90;;;;;;5008215;28;20460;-65
2023/10/06 02:05:47;;;;;;;0.00;0.00;;;15.30;99.90;;;;;;4995817;28;20049;-66
2023/10/06 02:08:22;;;;;;;0.20;0.20;;;15.30;99.90;;;;;;5007020;28;20045;-66
2023/10/06 02:10:48;;;;;;;3.60;2.17;;;15.40;99.90;;;;;;4996921;28;20046;-65
2023/10/06 02:13:21;;;;;;;0.00;0.00;;;15.30;99.90;;;;;;5007634;28;20060;-65
2023/10/06 02:15:56;;;;;;;0.68;0.47;;;15.30;99.90;;;;;;5007145;28;20053;-65
2023/10/06 02:18:22;;;;;;;0.10;0.10;;;15.30;99.90;;;;;;4996669;28;20050;-65
2023/10/06 02:20:49;;;;;;;0.10;0.10;;;15.30;99.90;;;;;;5006895;28;20421;-65
2023/10/06 02:23:14;;;;;;;0.00;0.00;;;15.30;99.90;;;;;;5003700;28;20054;-66
2023/10/06 02:25:40;;;;;;;0.00;0.00;;;15.30;99.90;;;;;;5001549;28;20041;-65
2023/10/06 02:28:08;;;;;;;0.35;0.35;;;15.20;99.90;;;;;;4998429;28;20171;-66
2023/10/06 02:30:34;;;;;;;0.10;0.10;;;15.20;99.90;;;;;;4997317;28;20116;-66
2023/10/06 02:33:05;;;;;;;0.00;0.00;;;15.10;99.90;;;;;;5006963;28;20665;-66
2023/10/06 02:35:31;;;;;;;1.10;1.10;;;15.20;99.90;;;;;;5008731;28;20136;-66
2023/10/06 02:37:57;;;;;;;1.75;0.95;;;15.20;99.90;;;;;;4998536;28;20046;-65
2023/10/06 02:40:30;;;;;;;0.00;0.00;;;15.10;99.90;;;;;;4997803;28;20053;-66
2023/10/06 02:42:56;;;;;;;0.10;0.10;;;15.10;99.90;;;;;;5007063;28;20064;-66
2023/10/06 02:45:22;;;;;;;0.17;0.17;;;15.10;99.90;;;;;;4999565;28;20057;-66
2023/10/06 02:47:48;;;;;;;0.00;0.00;;;15.00;99.90;;;;;;5003533;28;20034;-66
2023/10/06 02:50:23;;;;;;;2.80;2.00;;;15.00;99.90;;;;;;5006430;28;20045;-66
2023/10/06 02:52:53;;;;;;;0.05;0.05;;;15.00;99.90;;;;;;5003409;28;20042;-66
2023/10/06 02:55:19;;;;;;;0.00;0.00;;;15.00;99.90;;;;;;5000694;28;20042;-66
2023/10/06 02:57:50;;;;;;;2.40;1.35;;;14.90;99.90;;;;;;5007949;28;20429;-65
2023/10/06 03:02:45;;;;;;;0.00;0.00;;;15.00;99.90;;;;;;5010467;28;20107;-66
2023/10/06 03:05:32;;;;;;;1.95;0.45;;;14.90;99.90;;;;;;5004437;28;20046;-66
2023/10/06 03:07:58;;;;;;;0.22;0.22;;;15.00;99.90;;;;;;5005704;28;20045;-66
2023/10/06 03:10:27;;;;;;;0.38;0.20;;;14.90;99.90;;;;;;5011648;28;20053;-66
2023/10/06 03:12:53;;;;;;;0.00;0.00;;;14.90;99.90;;;;;;5005435;28;20057;-66
2023/10/06 03:15:36;;;;;;;1.00;0.90;;;15.00;99.90;;;;;;4998476;28;20058;-66
2023/10/06 03:18:03;;;;;;;0.00;0.00;;;14.90;99.90;;;;;;4998222;28;20054;-66
2023/10/06 03:20:40;;;;;;;2.42;0.77;;;15.00;99.90;;;;;;5009623;28;20049;-66
2023/10/06 03:23:23;;;;;;;3.60;0.45;;;14.90;99.90;;;;;;5001951;28;20038;-66
2023/10/06 03:25:53;;;;;;;0.73;0.73;;;15.00;99.90;;;;;;5005114;28;20049;-66
2023/10/06 03:28:19;;;;;;;0.15;0.15;;;15.00;99.90;;;;;;5010905;28;20053;-66
2023/10/06 03:30:49;;;;;;;0.20;0.20;;;15.00;99.90;;;;;;5010043;28;20187;-66
2023/10/06 03:33:16;;;;;;;0.20;0.20;;;15.00;99.90;;;;;;5000307;28;20052;-66
2023/10/06 03:35:48;;;;;;;0.30;0.30;;;15.00;99.90;;;;;;5001019;28;20053;-66
2023/10/06 03:40:59;;;;;;;0.47;0.35;;;15.00;99.90;;;;;;5009040;28;20096;-65
2023/10/06 03:43:45;;;;;;;0.32;0.32;;;14.90;99.90;;;;;;5005020;28;20057;-66
2023/10/06 03:46:16;;;;;;;0.20;0.20;;;15.00;99.90;;;;;;5002984;28;20490;-65
2023/10/06 03:48:41;;;;;;;0.30;0.30;;;14.90;99.90;;;;;;5007328;28;20092;-66
2023/10/06 03:51:07;;;;;;;0.30;0.30;;;15.00;99.90;;;;;;4994716;28;20046;-66
2023/10/06 03:53:32;;;;;;;0.10;0.10;;;15.00;99.90;;;;;;5005387;28;20140;-66
2023/10/06 03:55:58;;;;;;;0.20;0.20;;;15.00;99.90;;;;;;5011016;28;20038;-66
2023/10/06 03:58:32;;;;;;;1.10;0.77;;;14.90;99.90;;;;;;4998395;28;20505;-66
2023/10/06 04:00:58;;;;;;;0.10;0.10;;;14.90;99.90;;;;;;5001053;28;20073;-65
2023/10/06 04:03:23;;;;;;;0.35;0.35;;;14.90;99.90;;;;;;5004711;28;20046;-66
2023/10/06 04:05:51;;;;;;;2.00;1.50;;;14.90;99.90;;;;;;4997507;28;20049;-66
2023/10/06 04:08:20;;;;;;;0.47;0.32;;;14.90;99.90;;;;;;5004815;28;20054;-66
2023/10/06 04:10:48;;;;;;;0.10;0.10;;;14.90;99.90;;;;;;5003559;28;20034;-66
2023/10/06 04:13:17;;;;;;;0.75;0.75;;;14.90;99.90;;;;;;5004135;28;20136;-66
2023/10/06 04:15:43;;;;;;;0.55;0.55;;;14.90;99.90;;;;;;4996778;28;20077;-66
2023/10/06 04:18:10;;;;;;;0.35;0.35;;;14.90;99.90;;;;;;5004771;28;20712;-66
2023/10/06 04:20:40;;;;;;;0.22;0.22;;;14.90;99.90;;;;;;4992808;28;20046;-66
2023/10/06 04:23:07;;;;;;;0.00;0.00;;;14.90;99.90;;;;;;5017781;28;20073;-66
2023/10/06 04:25:37;;;;;;;0.10;0.10;;;14.90;99.90;;;;;;5004812;28;20071;-66
2023/10/06 04:28:05;;;;;;;0.05;0.05;;;14.90;99.90;;;;;;4960956;28;1064948;-67
2023/10/06 04:30:31;;;;;;;1.27;0.57;;;14.90;99.90;;;;;;5006501;28;20041;-66
2023/10/06 04:32:56;;;;;;;0.40;0.40;;;15.00;99.90;;;;;;4999652;28;20105;-66
2023/10/06 04:35:24;;;;;;;0.20;0.20;;;14.90;99.90;;;;;;5004596;28;20042;-66
2023/10/06 04:37:50;;;;;;;0.25;0.25;;;15.00;99.90;;;;;;5009737;28;20054;-66
2023/10/06 04:40:20;;;;;;;0.20;0.20;;;14.90;99.90;;;;;;5004710;28;20101;-66
2023/10/06 04:42:46;;;;;;;1.05;0.50;;;15.00;99.90;;;;;;5010101;28;20033;-66
2023/10/06 04:45:12;;;;;;;0.35;0.35;;;14.90;99.90;;;;;;5004014;28;20124;-66
2023/10/06 04:47:41;;;;;;;4.85;1.00;;;15.00;99.90;;;;;;5003738;28;20088;-66
2023/10/06 04:50:09;;;;;;;0.10;0.10;;;14.90;99.90;;;;;;5003530;28;20070;-66
2023/10/06 04:52:39;;;;;;;0.00;0.00;;;14.90;99.90;;;;;;5001024;28;20093;-66
2023/10/06 04:55:10;;;;;;;0.77;0.77;;;14.90;99.90;;;;;;5000673;28;20054;-66
2023/10/06 04:57:36;;;;;;;0.10;0.10;;;14.90;99.90;;;;;;5002481;28;20386;-66
2023/10/06 05:00:05;;;;;;;0.15;0.15;;;14.90;99.90;;;;;;5004328;28;20041;-67
2023/10/06 05:02:34;;;;;;;0.28;0.28;;;14.90;99.90;;;;;;5010701;28;20050;-66
2023/10/06 05:05:00;;;;;;;1.38;1.30;;;14.90;99.90;;;;;;4998630;28;20046;-66
2023/10/06 05:07:26;;;;;;;0.10;0.10;;;14.90;99.90;;;;;;5000443;28;20042;-66
2023/10/06 05:09:55;;;;;;;0.35;0.35;;;14.90;99.90;;;;;;4999325;28;20056;-66
2023/10/06 05:12:23;;;;;;;0.20;0.20;;;14.90;99.90;;;;;;5000069;28;20057;-66
2023/10/06 05:14:49;;;;;;;0.32;0.32;;;14.90;99.90;;;;;;5000405;28;20085;-66
2023/10/06 05:17:16;;;;;;;0.10;0.10;;;14.90;99.90;;;;;;4998178;28;20050;-66
2023/10/06 05:19:45;;;;;;;0.57;0.57;;;14.90;99.90;;;;;;4999109;28;20091;-66
2023/10/06 05:22:11;;;;;;;0.10;0.10;;;14.90;99.90;;;;;;4999665;28;20046;-66
2023/10/06 05:24:37;;;;;;;0.50;0.50;;;14.90;99.90;;;;;;5001854;28;20042;-66
2023/10/06 05:27:05;;;;;;;0.00;0.00;;;14.90;99.90;;;;;;5004556;28;20054;-66
2023/10/06 05:29:35;;;;;;;0.30;0.30;;;14.90;99.90;;;;;;5025184;28;20078;-66
2023/10/06 05:32:04;;;;;;;7.03;1.27;;;14.80;99.90;;;;;;5010818;28;20612;-66
2023/10/06 05:34:30;;;;;;;0.43;0.35;;;14.90;99.90;;;;;;5000267;28;20042;-66
2023/10/06 05:36:56;;;;;;;0.98;0.98;;;14.80;99.90;;;;;;5008859;28;20046;-66
2023/10/06 05:39:23;;;;;;;0.00;0.00;;;14.90;99.90;;;;;;5006004;28;20137;-66
2023/10/06 05:41:49;;;;;;;0.00;0.00;;;14.80;99.90;;;;;;4999616;28;20137;-66
2023/10/06 05:44:14;;;;;;;0.05;0.05;;;14.80;99.90;;;;;;5005302;28;20546;-66
2023/10/06 05:46:43;;;;;;;0.00;0.00;;;14.90;99.90;;;;;;5002695;28;20088;-66
2023/10/06 05:49:11;;;;;;;0.10;0.10;;;14.90;99.90;;;;;;5008514;28;20401;-66
2023/10/06 05:51:38;;;;;;;0.13;0.13;;;14.90;99.90;;;;;;4997480;28;20052;-66
2023/10/06 05:54:09;;;;;;;0.08;0.08;;;14.90;99.90;;;;;;5001117;28;20502;-66
2023/10/06 05:56:37;;;;;;;7.72;2.33;;;14.90;99.90;;;;;;5005163;28;20785;-66
2023/10/06 05:59:05;;;;;;;1.25;0.60;;;14.90;99.90;;;;;;5003743;28;20042;-66
2023/10/06 06:01:32;;;;;;;0.28;0.28;;;14.90;99.90;;;;;;4999411;28;20045;-66
2023/10/06 06:03:57;;;;;;;0.30;0.30;;;15.00;99.90;;;;;;5002721;28;20085;-66
2023/10/06 06:06:24;;;;;;;0.30;0.30;;;14.90;99.90;;;;;;5002096;28;20075;-66
2023/10/06 06:08:51;;;;;;;0.55;0.55;;;14.90;99.90;;;;;;5008509;28;20084;-66
2023/10/06 06:11:17;;;;;;;0.10;0.10;;;14.90;99.90;;;;;;4999056;28;20049;-66
2023/10/06 06:13:43;;;;;;;0.20;0.20;;;14.90;99.90;;;;;;5002518;28;20049;-66
2023/10/06 06:16:09;;;;;;;0.25;0.22;;;14.90;99.90;;;;;;4995423;28;20494;-66
2023/10/06 06:18:42;;;;;;;0.00;0.00;;;14.90;99.90;;;;;;5003946;28;20056;-66
2023/10/06 06:21:08;;;;;;;4.33;3.10;;;14.90;99.90;;;;;;4993909;28;20153;-66
2023/10/06 06:23:35;;;;;;;0.30;0.30;;;14.90;99.90;;;;;;5003310;28;20538;-67
2023/10/06 06:26:01;;;;;;;0.38;0.32;;;14.90;99.90;;;;;;5003277;28;20486;-66
2023/10/06 06:28:27;;;;;;;0.20;0.20;;;14.90;99.90;;;;;;5006299;28;20069;-66
2023/10/06 06:30:53;;;;;;;0.40;0.40;;;14.90;99.90;;;;;;5012982;28;20050;-66
2023/10/06 06:33:22;;;;;;;0.25;0.25;;;14.90;99.90;;;;;;5004266;28;20100;-65
2023/10/06 06:35:48;;;;;;;0.20;0.20;;;14.90;99.90;;;;;;5000222;28;20054;-65
2023/10/06 06:38:17;;;;;;;0.88;0.88;;;14.90;99.90;;;;;;4997985;28;20134;-65
2023/10/06 06:40:43;;;;;;;0.80;0.70;;;15.00;99.90;;;;;;5001403;28;20038;-66
2023/10/06 06:43:12;;;;;;;0.05;0.05;;;15.00;99.90;;;;;;5004289;28;20042;-66
2023/10/06 06:45:41;;;;;;;0.25;0.25;;;15.00;99.90;;;;;;5000324;28;20046;-66
2023/10/06 06:48:13;;;;;;;0.20;0.20;;;15.00;99.90;;;;;;5007184;28;20046;-66
2023/10/06 06:50:42;;;;;;;0.10;0.10;;;15.00;99.90;;;;;;4999884;28;20042;-66
2023/10/06 06:53:07;;;;;;;0.43;0.43;;;15.00;99.90;;;;;;4999948;28;20038;-66
2023/10/06 06:55:34;;;;;;;0.82;0.40;;;15.00;99.90;;;;;;4998671;28;20044;-66
2023/10/06 06:58:05;;;;;;;0.20;0.20;;;15.00;99.90;;;;;;5008256;28;20048;-66
2023/10/06 07:00:31;;;;;;;0.52;0.52;;;15.00;99.90;;;;;;5005767;28;20062;-66
2023/10/06 07:02:58;;;;;;;0.00;0.00;;;15.10;99.90;;;;;;5002550;28;20766;-66
2023/10/06 07:05:24;;;;;;;0.43;0.43;;;15.00;99.90;;;;;;4997937;28;20572;-66
2023/10/06 07:07:51;;;;;;;0.00;0.00;;;15.00;99.90;;;;;;5006114;28;20037;-66
2023/10/06 07:10:22;;;;;;;0.65;0.63;;;15.10;99.90;;;;;;5008939;28;20034;-66
2023/10/06 07:12:48;;;;;;;0.43;0.43;;;15.10;99.90;;;;;;5007639;28;20041;-66
2023/10/06 07:15:14;;;;;;;0.03;0.03;;;15.10;99.90;;;;;;5002842;28;20573;-66
2023/10/06 07:17:42;;;;;;;0.10;0.10;;;15.10;99.90;;;;;;5002828;28;20128;-66
2023/10/06 07:20:09;;;;;;;0.45;0.45;;;15.10;99.90;;;;;;5000182;28;20486;-66
2023/10/06 07:22:38;;;;;;;0.35;0.35;;;15.10;99.90;;;;;;4995914;28;20547;-66
2023/10/06 07:25:04;;;;;;;0.52;0.22;;;15.10;99.90;;;;;;5001540;28;20162;-66
2023/10/06 07:27:34;;;;;;;0.20;0.20;;;15.10;99.90;;;;;;5015508;28;20779;-66
2023/10/06 07:30:03;;;;;;;0.05;0.05;;;15.20;99.90;;;;;;5003203;28;20839;-66
2023/10/06 07:32:29;;;;;;;0.05;0.05;;;15.20;99.90;;;;;;5000227;28;20055;-66
2023/10/06 07:34:56;;;;;;;0.10;0.10;;;15.20;99.90;;;;;;4996390;28;20038;-66
2023/10/06 07:37:21;;;;;;;0.08;0.08;;;15.20;99.90;;;;;;5000432;28;20048;-66
2023/10/06 07:39:47;;;;;;;0.00;0.00;;;15.30;99.90;;;;;;5004205;28;20371;-66
2023/10/06 07:42:16;;;;;;;0.20;0.20;;;15.30;99.90;;;;;;5008773;28;20123;-66
2023/10/06 07:44:43;;;;;;;1.27;0.95;;;15.40;99.90;;;;;;5006635;28;20046;-66
2023/10/06 07:47:08;;;;;;;5.78;0.85;;;15.40;99.90;;;;;;5003096;28;20037;-66
2023/10/06 07:49:40;;;;;;;0.00;0.00;;;15.40;99.90;;;;;;5001059;28;20080;-66
2023/10/06 07:52:07;;;;;;;13.38;1.75;;;15.50;99.90;;;;;;5006007;28;20042;-66
2023/10/06 07:54:32;;;;;;;0.88;0.82;;;15.50;99.90;;;;;;5008153;28;20043;-66
2023/10/06 07:56:58;;;;;;;0.10;0.10;;;15.50;99.90;;;;;;5011915;28;20088;-66
2023/10/06 07:59:25;;;;;;;8.13;2.50;;;15.50;99.90;;;;;;5011226;28;20046;-66
2023/10/06 08:01:51;;;;;;;0.98;0.55;;;15.50;99.90;;;;;;5007798;28;20064;-66
2023/10/06 08:04:17;;;;;;;0.25;0.25;;;15.60;99.90;;;;;;5007026;28;20046;-66
2023/10/06 08:06:45;;;;;;;0.75;0.63;;;15.60;99.90;;;;;;5006976;28;20053;-66
2023/10/06 08:09:11;;;;;;;0.52;0.52;;;15.70;99.90;;;;;;5004906;28;20053;-66
2023/10/06 08:11:39;;;;;;;0.10;0.10;;;15.80;99.90;;;;;;5007541;28;20038;-66
2023/10/06 08:14:05;;;;;;;0.10;0.10;;;15.80;99.90;;;;;;5006687;28;20153;-66
2023/10/06 08:16:33;;;;;;;0.00;0.00;;;15.90;99.90;;;;;;5012301;28;20068;-65
2023/10/06 08:18:59;;;;;;;0.00;0.00;;;15.90;99.90;;;;;;5010123;28;20046;-66
2023/10/06 08:21:25;;;;;;;0.15;0.15;;;15.90;99.90;;;;;;5001829;28;20128;-66
2023/10/06 08:23:51;;;;;;;0.20;0.20;;;16.00;99.90;;;;;;5008206;28;20082;-66
2023/10/06 08:26:16;;;;;;;2.30;0.82;;;16.00;99.90;;;;;;5004956;28;20057;-66
2023/10/06 08:28:42;;;;;;;0.10;0.10;;;16.00;99.90;;;;;;5005291;28;20046;-65
2023/10/06 08:31:15;;;;;;;0.03;0.03;;;16.10;99.90;;;;;;5002692;28;20041;-68
2023/10/06 08:33:40;;;;;;;0.35;0.35;;;16.10;99.90;;;;;;5008122;28;20041;-66
2023/10/06 08:36:08;;;;;;;0.10;0.10;;;16.10;99.90;;;;;;5004957;28;20049;-66
2023/10/06 08:38:34;;;;;;;0.25;0.25;;;16.10;99.90;;;;;;5003934;28;20050;-65
2023/10/06 08:41:04;;;;;;;0.10;0.10;;;16.10;99.90;;;;;;5008264;28;20054;-66
2023/10/06 08:43:32;;;;;;;0.28;0.28;;;16.10;99.90;;;;;;5010371;28;20050;-66
2023/10/06 08:45:59;;;;;;;1.95;0.98;;;16.20;99.90;;;;;;5004487;28;20045;-66
2023/10/06 08:48:30;;;;;;;2.38;1.17;;;16.20;99.90;;;;;;5011432;28;20216;-66
2023/10/06 08:50:59;;;;;;;0.13;0.13;;;16.30;99.90;;;;;;5010436;28;20058;-65
2023/10/06 08:53:26;;;;;;;0.08;0.08;;;16.40;99.90;;;;;;5008895;28;20050;-66
2023/10/06 08:55:52;;;;;;;1.38;0.90;;;16.40;99.90;;;;;;5005125;28;20085;-66
2023/10/06 08:58:18;;;;;;;0.28;0.28;;;16.50;99.90;;;;;;5011476;28;20146;-65
2023/10/06 09:00:44;;;;;;;0.10;0.10;;;16.60;99.90;;;;;;5000562;28;20054;-65
2023/10/06 09:03:16;;;;;;;10.70;1.15;;;16.60;99.90;;;;;;5002598;28;20041;-66
2023/10/06 09:05:43;;;;;;;0.10;0.10;;;16.70;99.90;;;;;;5008732;28;20498;-65
2023/10/06 09:08:14;;;;;;;0.43;0.43;;;16.70;99.90;;;;;;5009548;28;20168;-66
2023/10/06 09:10:41;;;;;;;0.22;0.22;;;16.70;99.90;;;;;;5002652;28;20478;-66
2023/10/06 09:13:08;;;;;;;9.50;2.35;;;16.70;99.90;;;;;;5010871;28;20397;-66
2023/10/06 09:15:35;;;;;;;0.00;0.00;;;16.70;99.90;;;;;;5006465;28;20057;-66
2023/10/06 09:18:18;;;;;;;0.30;0.30;;;16.80;99.90;;;;;;5000801;28;20050;-66
2023/10/06 09:20:45;;;;;;;0.08;0.08;;;16.90;99.90;;;;;;5010110;28;20049;-65
2023/10/06 09:23:11;;;;;;;0.20;0.20;;;17.00;99.90;;;;;;5000967;28;20042;-66
2023/10/06 09:25:45;;;;;;;1.25;1.17;;;17.10;99.90;;;;;;5007541;28;20050;-66
2023/10/06 09:28:14;;;;;;;1.13;1.02;;;17.20;99.90;;;;;;5000697;28;20050;-65
2023/10/06 09:30:50;;;;;;;1.30;1.20;;;17.40;99.90;;;;;;5007888;28;20057;-66
2023/10/06 09:33:17;;;;;;;0.52;0.52;;;17.50;99.90;;;;;;5008374;28;20049;-66
2023/10/06 09:35:43;;;;;;;4.30;2.25;;;17.60;99.90;;;;;;5005948;28;20093;-66
2023/10/06 09:38:13;;;;;;;2.00;1.75;;;17.60;99.90;;;;;;5001404;28;20696;-66
2023/10/06 09:40:46;;;;;;;0.05;0.05;;;17.60;99.90;;;;;;5004111;28;20038;-66
2023/10/06 09:43:15;;;;;;;0.10;0.10;;;17.60;99.90;;;;;;5007083;28;20100;-66
2023/10/06 09:45:42;;;;;;;11.38;2.78;;;17.60;99.90;;;;;;5005444;28;20143;-67
2023/10/06 09:48:15;;;;;;;0.38;0.38;;;17.60;99.90;;;;;;5006932;28;20548;-66
2023/10/06 09:50:50;;;;;;;0.20;0.20;;;17.50;99.90;;;;;;5006184;28;20050;-66
2023/10/06 09:53:19;;;;;;;2.65;1.02;;;17.50;99.90;;;;;;5006830;28;20050;-66
2023/10/06 09:55:49;;;;;;;0.60;0.60;;;17.60;99.90;;;;;;5007407;28;20419;-66
2023/10/06 09:58:19;;;;;;;0.40;0.38;;;17.70;99.90;;;;;;5010041;28;20375;-66
2023/10/06 10:00:45;;;;;;;2.78;0.50;;;17.80;99.90;;;;;;4998635;28;20062;-66
2023/10/06 10:03:14;;;;;;;0.15;0.15;;;17.90;99.90;;;;;;5005056;28;20055;-66
2023/10/06 10:05:41;;;;;;;0.08;0.08;;;18.00;99.90;;;;;;4996611;28;20133;-66
2023/10/06 10:08:07;;;;;;;3.08;0.85;;;18.00;99.90;;;;;;5005833;28;20049;-67
2023/10/06 10:10:36;;;;;;;2.67;1.48;;;18.10;99.90;;;;;;5003389;28;20076;-65
2023/10/06 10:13:31;;;;;;;26.98;0.93;;;18.30;99.90;;;;;;5022266;28;20054;-67
2023/10/06 10:16:09;;;;;;;0.10;0.10;;;18.40;99.90;;;;;;5010360;28;20107;-66
2023/10/06 10:18:52;;;;;;;0.08;0.05;;;18.40;99.90;;;;;;4996945;28;20069;-66
2023/10/06 10:21:19;;;;;;;0.00;0.00;;;18.50;99.90;;;;;;5004329;28;20084;-66
2023/10/06 10:23:45;;;;;;;0.28;0.28;;;18.70;99.90;;;;;;5001477;28;20053;-66
2023/10/06 10:26:18;;;;;;;0.00;0.00;;;18.70;99.90;;;;;;5004980;28;20046;-66
2023/10/06 10:29:04;;;;;;;0.15;0.15;;;18.80;99.90;;;;;;5007260;28;20266;-66
2023/10/06 10:31:36;;;;;;;3.50;0.90;;;18.90;99.90;;;;;;5001590;28;20053;-66
2023/10/06 10:34:02;;;;;;;0.03;0.03;;;19.00;99.90;;;;;;5003752;28;20385;-66
2023/10/06 10:36:27;;;;;;;0.08;0.08;;;19.00;99.90;;;;;;5008416;28;20037;-66
2023/10/06 10:38:59;;;;;;;0.60;0.52;;;18.90;99.90;;;;;;5007406;28;20042;-66
2023/10/06 10:41:29;;;;;;;0.15;0.15;;;18.90;99.90;;;;;;5004163;28;20169;-66
2023/10/06 10:43:56;;;;;;;24.75;0.55;;;19.00;99.90;;;;;;5005583;28;20053;-66
2023/10/06 10:46:33;;;;;;;1.25;0.45;;;19.10;99.90;;;;;;4995798;28;20059;-66
2023/10/06 10:49:00;;;;;;;3.08;1.25;;;19.10;99.90;;;;;;5005697;28;20038;-66
2023/10/06 10:51:27;;;;;;;0.20;0.20;;;19.00;99.90;;;;;;5006468;28;20124;-66
2023/10/06 10:53:54;;;;;;;0.60;0.60;;;19.00;99.90;;;;;;5001085;28;20057;-66
2023/10/06 10:56:25;;;;;;;2.70;1.42;;;19.10;99.90;;;;;;5009374;28;20049;-66
2023/10/06 10:58:50;;;;;;;1.40;1.25;;;19.20;99.90;;;;;;5006653;28;20054;-66
2023/10/06 11:01:37;;;;;;;6.43;1.98;;;19.20;99.90;;;;;;5006491;28;20045;-66
2023/10/06 11:04:18;;;;;;;0.85;0.65;;;19.20;99.90;;;;;;5001558;28;20053;-66
2023/10/06 11:06:46;;;;;;;1.13;1.08;;;19.30;99.90;;;;;;4996310;28;20046;-66
2023/10/06 11:09:29;;;;;;;0.63;0.63;;;19.20;99.90;;;;;;5003242;28;20531;-66
2023/10/06 11:12:17;;;;;;;4.40;1.15;;;19.30;99.90;;;;;;4995099;28;20553;-66
2023/10/06 11:14:43;;;;;;;0.10;0.10;;;19.50;99.90;;;;;;4998288;28;20057;-66
2023/10/06 11:17:11;;;;;;;0.35;0.35;;;19.60;99.90;;;;;;5006754;28;20064;-66
2023/10/06 11:19:38;;;;;;;3.50;1.45;;;19.70;99.90;;;;;;5027438;28;20041;-66
2023/10/06 11:22:22;;;;;;;0.03;0.03;;;19.80;99.90;;;;;;5010443;28;20445;-65
2023/10/06 11:24:49;;;;;;;0.55;0.55;;;19.90;99.90;;;;;;5003057;28;20045;-65
2023/10/06 11:27:22;;;;;;;1.60;1.50;;;19.90;99.90;;;;;;5010774;28;20054;-65
2023/10/06 11:29:52;;;;;;;0.00;0.00;;;19.80;99.90;;;;;;5006289;28;20050;-65
2023/10/06 11:32:21;;;;;;;0.65;0.47;;;19.60;99.90;;;;;;5005429;28;20433;-65
2023/10/06 11:34:49;;;;;;;0.00;0.00;;;19.60;99.90;;;;;;5012134;28;20045;-65
2023/10/06 11:37:22;;;;;;;1.05;0.95;;;19.60;99.90;;;;;;5003585;28;20447;-65
2023/10/06 11:39:52;;;;;;;0.47;0.47;;;19.60;99.90;;;;;;5004952;28;20050;-65
2023/10/06 11:42:24;;;;;;;0.52;0.52;;;19.70;99.90;;;;;;5011874;28;20053;-65
2023/10/06 11:44:54;;;;;;;4.47;1.17;;;19.90;99.90;;;;;;5006689;28;20062;-66
2023/10/06 11:47:24;;;;;;;0.00;0.00;;;20.00;99.90;;;;;;5004844;28;20053;-65
2023/10/06 11:49:57;;;;;;;0.00;0.00;;;20.30;99.90;;;;;;5001601;28;20050;-65
2023/10/06 11:52:23;;;;;;;0.00;0.00;;;20.30;99.90;;;;;;5002478;28;20046;-65
2023/10/06 11:54:49;;;;;;;1.73;1.00;;;20.30;99.90;;;;;;5009110;28;20052;-66
2023/10/06 11:57:15;;;;;;;3.95;1.17;;;20.40;99.90;;;;;;5004465;28;20041;-65
2023/10/06 12:00:10;;;;;;;0.65;0.65;;;20.40;99.90;;;;;;5008581;28;20038;-65
2023/10/06 12:02:50;;;;;;;0.80;0.80;;;20.50;99.90;;;;;;5003794;28;20042;-66
2023/10/06 12:05:22;;;;;;;3.10;1.55;;;20.40;99.90;;;;;;5001017;28;20409;-65
2023/10/06 12:07:51;;;;;;;0.00;0.00;;;20.20;99.90;;;;;;5007517;28;20056;-65
2023/10/06 12:10:18;;;;;;;6.72;3.67;;;20.00;99.90;;;;;;5007658;28;20056;-65
2023/10/06 12:12:48;;;;;;;0.55;0.30;;;19.90;99.90;;;;;;5005395;28;20037;-65
2023/10/06 12:15:14;;;;;;;0.28;0.28;;;19.80;99.90;;;;;;5011932;28;20038;-65
2023/10/06 12:17:41;;;;;;;1.80;0.73;;;19.70;99.90;;;;;;5007197;28;20042;-65
2023/10/06 12:20:13;;;;;;;4.72;1.65;;;19.60;99.90;;;;;;5006987;28;20046;-65
2023/10/06 12:22:42;;;;;;;0.05;0.05;;;19.50;99.90;;;;;;5002955;28;20042;-65
2023/10/06 12:25:11;;;;;;;3.80;1.10;;;19.40;99.90;;;;;;5005532;28;20089;-65
2023/10/06 12:27:36;;;;;;;0.25;0.22;;;19.40;99.90;;;;;;5010902;28;20073;-65
2023/10/06 12:30:06;;;;;;;0.10;0.10;;;19.30;99.90;;;;;;5005992;28;20085;-65
2023/10/06 12:32:35;;;;;;;1.17;0.80;;;19.30;99.90;;;;;;5001460;28;20053;-66
2023/10/06 12:35:08;;;;;;;0.95;0.95;;;19.30;99.90;;;;;;5006438;28;20081;-65
2023/10/06 12:37:40;;;;;;;0.10;0.10;;;19.20;99.90;;;;;;5001362;28;20433;-65
2023/10/06 12:40:11;;;;;;;0.10;0.10;;;19.20;99.90;;;;;;5006229;28;20050;-65
2023/10/06 12:42:38;;;;;;;0.00;0.00;;;19.20;99.90;;;;;;5008100;28;20100;-65
2023/10/06 12:45:13;;;;;;;1.17;1.08;;;19.20;99.90;;;;;;5005316;28;20508;-65
2023/10/06 12:47:45;;;;;;;2.10;1.77;;;19.20;99.90;;;;;;4995767;28;20363;-65
2023/10/06 12:50:13;;;;;;;3.10;0.20;;;19.20;99.90;;;;;;5007839;28;20046;-65
2023/10/06 12:52:39;;;;;;;0.00;0.00;;;19.30;99.90;;;;;;5010505;28;20379;-65
2023/10/06 12:55:10;;;;;;;0.20;0.20;;;19.20;99.90;;;;;;5005337;28;20116;-65
2023/10/06 12:57:40;;;;;;;1.48;1.35;;;19.20;99.90;;;;;;5010284;28;20393;-65
2023/10/06 13:00:08;;;;;;;0.00;0.00;;;19.20;99.90;;;;;;5003926;28;20042;-65
2023/10/06 13:02:34;;;;;;;23.00;0.98;;;19.20;99.90;;;;;;5004279;28;20034;-65
2023/10/06 13:05:08;;;;;;;0.55;0.55;;;19.10;99.90;;;;;;5008410;28;20126;-65